sensor_id;sensor_type;location;lat;lon;timestamp;P1;durP1;ratioP1;P2;durP2;ratioP2
56005;SDS011;41888;44.696;10.522;2022-12-29T00:01:30;91.18;;;34.53;;
56005;SDS011;41888;44.696;10.522;2022-12-29T00:03:57;88.88;;;36.70;;
56005;SDS011;41888;44.696;10.522;2022-12-29T00:06:25;93.43;;;36.15;;
56005;SDS011;41888;44.696;10.522;2022-12-29T00:08:51;93.45;;;36.97;;
56005;SDS011;41888;44.696;10.522;2022-12-29T00:11:20;86.18;;;34.55;;
56005;SDS011;41888;44.696;10.522;2022-12-29T00:13:50;90.85;;;37.30;;
56005;SDS011;41888;44.696;10.522;2022-12-29T00:16:36;95.65;;;36.85;;
56005;SDS011;41888;44.696;10.522;2022-12-29T00:19:05;94.22;;;36.05;;
56005;SDS011;41888;44.696;10.522;2022-12-29T00:21:31;99.35;;;39.45;;
56005;SDS011;41888;44.696;10.522;2022-12-29T00:27:07;87.90;;;35.90;;
56005;SDS011;41888;44.696;10.522;2022-12-29T00:29:55;94.22;;;36.15;;
56005;SDS011;41888;44.696;10.522;2022-12-29T00:32:40;83.88;;;34.25;;
56005;SDS011;41888;44.696;10.522;2022-12-29T00:35:28;82.22;;;34.58;;
56005;SDS011;41888;44.696;10.522;2022-12-29T00:37:59;98.18;;;37.03;;
56005;SDS011;41888;44.696;10.522;2022-12-29T00:40:48;95.03;;;36.55;;
56005;SDS011;41888;44.696;10.522;2022-12-29T00:43:33;101.50;;;36.83;;
56005;SDS011;41888;44.696;10.522;2022-12-29T00:48:44;102.93;;;35.45;;
56005;SDS011;41888;44.696;10.522;2022-12-29T00:51:29;102.68;;;35.65;;
56005;SDS011;41888;44.696;10.522;2022-12-29T00:53:55;98.25;;;35.47;;
56005;SDS011;41888;44.696;10.522;2022-12-29T00:56:21;84.13;;;34.30;;
56005;SDS011;41888;44.696;10.522;2022-12-29T00:58:47;96.13;;;36.83;;
56005;SDS011;41888;44.696;10.522;2022-12-29T01:01:13;89.47;;;33.95;;
56005;SDS011;41888;44.696;10.522;2022-12-29T01:03:40;93.13;;;35.40;;
56005;SDS011;41888;44.696;10.522;2022-12-29T01:06:07;94.38;;;37.58;;
56005;SDS011;41888;44.696;10.522;2022-12-29T01:08:34;86.82;;;33.85;;
56005;SDS011;41888;44.696;10.522;2022-12-29T01:11:02;88.60;;;34.47;;
56005;SDS011;41888;44.696;10.522;2022-12-29T01:13:33;93.80;;;35.83;;
56005;SDS011;41888;44.696;10.522;2022-12-29T01:15:59;93.43;;;34.53;;
56005;SDS011;41888;44.696;10.522;2022-12-29T01:18:26;86.35;;;35.35;;
56005;SDS011;41888;44.696;10.522;2022-12-29T01:21:03;81.47;;;32.95;;
56005;SDS011;41888;44.696;10.522;2022-12-29T01:23:30;87.75;;;33.03;;
56005;SDS011;41888;44.696;10.522;2022-12-29T01:25:57;89.40;;;35.65;;
56005;SDS011;41888;44.696;10.522;2022-12-29T01:28:32;98.85;;;37.05;;
56005;SDS011;41888;44.696;10.522;2022-12-29T01:31:00;91.90;;;35.40;;
56005;SDS011;41888;44.696;10.522;2022-12-29T01:33:26;81.47;;;33.00;;
56005;SDS011;41888;44.696;10.522;2022-12-29T01:35:52;81.85;;;33.95;;
56005;SDS011;41888;44.696;10.522;2022-12-29T01:38:18;82.50;;;35.55;;
56005;SDS011;41888;44.696;10.522;2022-12-29T01:40:45;85.43;;;35.00;;
56005;SDS011;41888;44.696;10.522;2022-12-29T01:43:12;85.32;;;34.83;;
56005;SDS011;41888;44.696;10.522;2022-12-29T01:45:43;90.45;;;36.28;;
56005;SDS011;41888;44.696;10.522;2022-12-29T01:48:15;87.13;;;35.63;;
56005;SDS011;41888;44.696;10.522;2022-12-29T01:50:45;88.68;;;34.90;;
56005;SDS011;41888;44.696;10.522;2022-12-29T01:53:26;93.60;;;36.22;;
56005;SDS011;41888;44.696;10.522;2022-12-29T01:55:58;90.03;;;34.55;;
56005;SDS011;41888;44.696;10.522;2022-12-29T01:58:29;89.68;;;33.97;;
56005;SDS011;41888;44.696;10.522;2022-12-29T02:00:59;81.38;;;34.47;;
56005;SDS011;41888;44.696;10.522;2022-12-29T02:03:25;87.38;;;35.47;;
56005;SDS011;41888;44.696;10.522;2022-12-29T02:05:55;90.05;;;37.65;;
56005;SDS011;41888;44.696;10.522;2022-12-29T02:08:35;96.30;;;34.20;;
56005;SDS011;41888;44.696;10.522;2022-12-29T02:11:05;88.07;;;33.72;;
56005;SDS011;41888;44.696;10.522;2022-12-29T02:13:32;87.53;;;32.75;;
56005;SDS011;41888;44.696;10.522;2022-12-29T02:30:10;94.38;;;36.28;;
56005;SDS011;41888;44.696;10.522;2022-12-29T02:32:58;80.28;;;34.63;;
56005;SDS011;41888;44.696;10.522;2022-12-29T02:38:21;93.93;;;34.88;;
56005;SDS011;41888;44.696;10.522;2022-12-29T02:40:53;89.00;;;34.90;;
56005;SDS011;41888;44.696;10.522;2022-12-29T02:43:25;89.35;;;35.70;;
56005;SDS011;41888;44.696;10.522;2022-12-29T02:46:08;86.70;;;35.55;;
56005;SDS011;41888;44.696;10.522;2022-12-29T02:48:41;83.47;;;34.53;;
56005;SDS011;41888;44.696;10.522;2022-12-29T02:53:46;85.88;;;34.38;;
56005;SDS011;41888;44.696;10.522;2022-12-29T02:56:31;79.35;;;32.83;;
56005;SDS011;41888;44.696;10.522;2022-12-29T02:58:58;93.75;;;37.20;;
56005;SDS011;41888;44.696;10.522;2022-12-29T03:04:38;89.50;;;34.08;;
56005;SDS011;41888;44.696;10.522;2022-12-29T03:13:01;79.93;;;34.03;;
56005;SDS011;41888;44.696;10.522;2022-12-29T03:16:52;75.50;;;32.40;;
56005;SDS011;41888;44.696;10.522;2022-12-29T03:24:32;89.82;;;36.33;;
56005;SDS011;41888;44.696;10.522;2022-12-29T03:27:02;87.72;;;35.95;;
56005;SDS011;41888;44.696;10.522;2022-12-29T03:29:33;86.97;;;36.47;;
56005;SDS011;41888;44.696;10.522;2022-12-29T03:32:07;85.90;;;34.72;;
56005;SDS011;41888;44.696;10.522;2022-12-29T03:34:37;81.20;;;34.05;;
56005;SDS011;41888;44.696;10.522;2022-12-29T03:37:14;81.28;;;34.97;;
56005;SDS011;41888;44.696;10.522;2022-12-29T03:39:43;81.32;;;35.17;;
56005;SDS011;41888;44.696;10.522;2022-12-29T03:42:11;80.07;;;35.33;;
56005;SDS011;41888;44.696;10.522;2022-12-29T03:44:41;88.40;;;35.55;;
56005;SDS011;41888;44.696;10.522;2022-12-29T03:47:09;77.22;;;33.50;;
56005;SDS011;41888;44.696;10.522;2022-12-29T03:49:38;83.28;;;34.72;;
56005;SDS011;41888;44.696;10.522;2022-12-29T03:52:05;81.40;;;34.25;;
56005;SDS011;41888;44.696;10.522;2022-12-29T03:54:32;79.55;;;34.28;;
56005;SDS011;41888;44.696;10.522;2022-12-29T03:56:58;89.20;;;35.20;;
56005;SDS011;41888;44.696;10.522;2022-12-29T03:59:24;89.13;;;36.05;;
56005;SDS011;41888;44.696;10.522;2022-12-29T04:01:50;86.75;;;35.00;;
56005;SDS011;41888;44.696;10.522;2022-12-29T04:04:16;76.03;;;32.95;;
56005;SDS011;41888;44.696;10.522;2022-12-29T04:06:43;85.78;;;35.47;;
56005;SDS011;41888;44.696;10.522;2022-12-29T04:09:09;80.45;;;32.67;;
56005;SDS011;41888;44.696;10.522;2022-12-29T04:11:36;84.15;;;33.78;;
56005;SDS011;41888;44.696;10.522;2022-12-29T04:14:02;83.97;;;34.28;;
56005;SDS011;41888;44.696;10.522;2022-12-29T04:16:28;90.35;;;35.53;;
56005;SDS011;41888;44.696;10.522;2022-12-29T04:18:54;92.13;;;37.35;;
56005;SDS011;41888;44.696;10.522;2022-12-29T04:21:21;81.18;;;34.92;;
56005;SDS011;41888;44.696;10.522;2022-12-29T04:23:47;95.53;;;35.22;;
56005;SDS011;41888;44.696;10.522;2022-12-29T04:26:13;95.22;;;36.72;;
56005;SDS011;41888;44.696;10.522;2022-12-29T04:28:39;100.20;;;36.08;;
56005;SDS011;41888;44.696;10.522;2022-12-29T04:31:05;100.55;;;36.15;;
56005;SDS011;41888;44.696;10.522;2022-12-29T04:33:31;88.03;;;35.33;;
56005;SDS011;41888;44.696;10.522;2022-12-29T04:35:58;99.13;;;35.97;;
56005;SDS011;41888;44.696;10.522;2022-12-29T04:38:24;92.75;;;38.83;;
56005;SDS011;41888;44.696;10.522;2022-12-29T04:40:50;115.65;;;41.20;;
56005;SDS011;41888;44.696;10.522;2022-12-29T04:43:17;113.28;;;40.47;;
56005;SDS011;41888;44.696;10.522;2022-12-29T04:45:47;123.50;;;40.00;;
56005;SDS011;41888;44.696;10.522;2022-12-29T04:48:13;129.05;;;44.33;;
56005;SDS011;41888;44.696;10.522;2022-12-29T04:50:40;119.90;;;40.63;;
56005;SDS011;41888;44.696;10.522;2022-12-29T04:53:07;112.10;;;40.60;;
56005;SDS011;41888;44.696;10.522;2022-12-29T04:55:33;112.00;;;38.88;;
56005;SDS011;41888;44.696;10.522;2022-12-29T04:57:59;107.65;;;40.40;;
56005;SDS011;41888;44.696;10.522;2022-12-29T05:00:25;114.78;;;42.10;;
56005;SDS011;41888;44.696;10.522;2022-12-29T05:02:52;106.72;;;37.60;;
56005;SDS011;41888;44.696;10.522;2022-12-29T05:05:18;115.28;;;42.15;;
56005;SDS011;41888;44.696;10.522;2022-12-29T05:07:44;100.28;;;41.45;;
56005;SDS011;41888;44.696;10.522;2022-12-29T05:10:10;103.88;;;40.53;;
56005;SDS011;41888;44.696;10.522;2022-12-29T05:12:37;98.60;;;38.88;;
56005;SDS011;41888;44.696;10.522;2022-12-29T05:15:04;98.25;;;40.40;;
56005;SDS011;41888;44.696;10.522;2022-12-29T05:17:32;96.53;;;37.75;;
56005;SDS011;41888;44.696;10.522;2022-12-29T05:19:58;103.32;;;41.42;;
56005;SDS011;41888;44.696;10.522;2022-12-29T05:22:25;100.95;;;39.22;;
56005;SDS011;41888;44.696;10.522;2022-12-29T05:24:51;97.10;;;39.08;;
56005;SDS011;41888;44.696;10.522;2022-12-29T05:27:17;96.28;;;39.42;;
56005;SDS011;41888;44.696;10.522;2022-12-29T05:29:43;86.10;;;37.55;;
56005;SDS011;41888;44.696;10.522;2022-12-29T05:32:09;100.70;;;40.92;;
56005;SDS011;41888;44.696;10.522;2022-12-29T05:34:35;99.72;;;38.47;;
56005;SDS011;41888;44.696;10.522;2022-12-29T05:37:02;102.25;;;41.75;;
56005;SDS011;41888;44.696;10.522;2022-12-29T05:39:28;95.93;;;39.92;;
56005;SDS011;41888;44.696;10.522;2022-12-29T05:41:54;91.97;;;40.05;;
56005;SDS011;41888;44.696;10.522;2022-12-29T05:44:21;94.70;;;40.05;;
56005;SDS011;41888;44.696;10.522;2022-12-29T05:46:47;99.57;;;41.58;;
56005;SDS011;41888;44.696;10.522;2022-12-29T05:49:13;90.13;;;37.45;;
56005;SDS011;41888;44.696;10.522;2022-12-29T05:51:39;96.40;;;40.40;;
56005;SDS011;41888;44.696;10.522;2022-12-29T05:54:05;101.38;;;42.30;;
56005;SDS011;41888;44.696;10.522;2022-12-29T05:56:31;104.55;;;40.97;;
56005;SDS011;41888;44.696;10.522;2022-12-29T05:58:58;104.13;;;40.88;;
56005;SDS011;41888;44.696;10.522;2022-12-29T06:01:24;103.07;;;40.53;;
56005;SDS011;41888;44.696;10.522;2022-12-29T06:03:50;104.15;;;40.95;;
56005;SDS011;41888;44.696;10.522;2022-12-29T06:06:16;108.18;;;41.22;;
56005;SDS011;41888;44.696;10.522;2022-12-29T06:08:43;105.10;;;40.80;;
56005;SDS011;41888;44.696;10.522;2022-12-29T06:11:09;104.18;;;41.17;;
56005;SDS011;41888;44.696;10.522;2022-12-29T06:13:36;122.72;;;46.30;;
56005;SDS011;41888;44.696;10.522;2022-12-29T06:16:02;110.15;;;45.78;;
56005;SDS011;41888;44.696;10.522;2022-12-29T06:18:28;121.20;;;45.38;;
56005;SDS011;41888;44.696;10.522;2022-12-29T06:20:59;104.90;;;42.53;;
56005;SDS011;41888;44.696;10.522;2022-12-29T06:23:25;106.45;;;43.08;;
56005;SDS011;41888;44.696;10.522;2022-12-29T06:25:52;97.15;;;40.80;;
56005;SDS011;41888;44.696;10.522;2022-12-29T06:28:18;105.70;;;42.80;;
56005;SDS011;41888;44.696;10.522;2022-12-29T06:30:45;102.63;;;41.25;;
56005;SDS011;41888;44.696;10.522;2022-12-29T06:33:11;106.72;;;41.45;;
56005;SDS011;41888;44.696;10.522;2022-12-29T06:35:38;103.57;;;41.65;;
56005;SDS011;41888;44.696;10.522;2022-12-29T06:38:04;109.75;;;44.58;;
56005;SDS011;41888;44.696;10.522;2022-12-29T06:40:31;108.47;;;41.38;;
56005;SDS011;41888;44.696;10.522;2022-12-29T06:42:57;104.45;;;41.25;;
56005;SDS011;41888;44.696;10.522;2022-12-29T06:45:23;106.22;;;41.53;;
56005;SDS011;41888;44.696;10.522;2022-12-29T06:47:49;104.13;;;40.90;;
56005;SDS011;41888;44.696;10.522;2022-12-29T06:50:15;104.40;;;40.67;;
56005;SDS011;41888;44.696;10.522;2022-12-29T06:52:42;101.10;;;40.75;;
56005;SDS011;41888;44.696;10.522;2022-12-29T06:55:08;97.80;;;39.25;;
56005;SDS011;41888;44.696;10.522;2022-12-29T06:57:34;96.65;;;37.55;;
56005;SDS011;41888;44.696;10.522;2022-12-29T07:00:00;108.95;;;39.65;;
56005;SDS011;41888;44.696;10.522;2022-12-29T07:02:28;117.22;;;41.85;;
56005;SDS011;41888;44.696;10.522;2022-12-29T07:04:54;104.50;;;39.88;;
56005;SDS011;41888;44.696;10.522;2022-12-29T07:07:20;105.45;;;42.22;;
56005;SDS011;41888;44.696;10.522;2022-12-29T07:09:47;110.07;;;42.85;;
56005;SDS011;41888;44.696;10.522;2022-12-29T07:12:13;113.28;;;41.35;;
56005;SDS011;41888;44.696;10.522;2022-12-29T07:14:39;108.18;;;40.10;;
56005;SDS011;41888;44.696;10.522;2022-12-29T07:17:05;118.35;;;43.40;;
56005;SDS011;41888;44.696;10.522;2022-12-29T07:19:32;109.20;;;39.47;;
56005;SDS011;41888;44.696;10.522;2022-12-29T07:21:58;107.25;;;41.88;;
56005;SDS011;41888;44.696;10.522;2022-12-29T07:24:27;96.25;;;38.20;;
56005;SDS011;41888;44.696;10.522;2022-12-29T07:26:54;110.22;;;39.75;;
56005;SDS011;41888;44.696;10.522;2022-12-29T07:29:20;113.03;;;41.35;;
56005;SDS011;41888;44.696;10.522;2022-12-29T07:31:47;100.72;;;41.45;;
56005;SDS011;41888;44.696;10.522;2022-12-29T07:34:13;101.78;;;38.13;;
56005;SDS011;41888;44.696;10.522;2022-12-29T07:36:39;99.38;;;37.35;;
56005;SDS011;41888;44.696;10.522;2022-12-29T07:39:05;104.55;;;39.50;;
56005;SDS011;41888;44.696;10.522;2022-12-29T07:41:31;111.15;;;41.25;;
56005;SDS011;41888;44.696;10.522;2022-12-29T07:43:58;103.00;;;39.85;;
56005;SDS011;41888;44.696;10.522;2022-12-29T07:46:24;94.78;;;38.67;;
56005;SDS011;41888;44.696;10.522;2022-12-29T07:48:50;96.15;;;37.80;;
56005;SDS011;41888;44.696;10.522;2022-12-29T07:51:16;105.50;;;43.53;;
56005;SDS011;41888;44.696;10.522;2022-12-29T07:53:42;96.50;;;40.28;;
56005;SDS011;41888;44.696;10.522;2022-12-29T07:56:08;96.43;;;37.22;;
56005;SDS011;41888;44.696;10.522;2022-12-29T07:58:34;109.35;;;41.35;;
56005;SDS011;41888;44.696;10.522;2022-12-29T08:01:01;108.57;;;39.40;;
56005;SDS011;41888;44.696;10.522;2022-12-29T08:03:27;109.95;;;41.40;;
56005;SDS011;41888;44.696;10.522;2022-12-29T08:05:53;107.13;;;41.22;;
56005;SDS011;41888;44.696;10.522;2022-12-29T08:08:19;105.95;;;41.70;;
56005;SDS011;41888;44.696;10.522;2022-12-29T08:10:46;113.43;;;39.63;;
56005;SDS011;41888;44.696;10.522;2022-12-29T08:13:12;117.82;;;39.60;;
56005;SDS011;41888;44.696;10.522;2022-12-29T08:15:38;128.07;;;42.33;;
56005;SDS011;41888;44.696;10.522;2022-12-29T08:18:04;121.57;;;41.53;;
56005;SDS011;41888;44.696;10.522;2022-12-29T08:20:31;118.70;;;42.13;;
56005;SDS011;41888;44.696;10.522;2022-12-29T08:22:57;107.00;;;38.17;;
56005;SDS011;41888;44.696;10.522;2022-12-29T08:25:23;110.82;;;37.60;;
56005;SDS011;41888;44.696;10.522;2022-12-29T08:27:49;109.57;;;40.67;;
56005;SDS011;41888;44.696;10.522;2022-12-29T08:30:16;110.97;;;38.72;;
56005;SDS011;41888;44.696;10.522;2022-12-29T08:32:42;111.10;;;38.75;;
56005;SDS011;41888;44.696;10.522;2022-12-29T08:35:08;97.88;;;38.47;;
56005;SDS011;41888;44.696;10.522;2022-12-29T08:37:34;96.60;;;38.17;;
56005;SDS011;41888;44.696;10.522;2022-12-29T08:40:01;92.25;;;37.03;;
56005;SDS011;41888;44.696;10.522;2022-12-29T08:42:29;100.40;;;36.67;;
56005;SDS011;41888;44.696;10.522;2022-12-29T08:44:56;106.60;;;39.17;;
56005;SDS011;41888;44.696;10.522;2022-12-29T08:47:23;94.43;;;36.75;;
56005;SDS011;41888;44.696;10.522;2022-12-29T08:49:50;93.93;;;37.15;;
56005;SDS011;41888;44.696;10.522;2022-12-29T08:52:17;97.93;;;36.15;;
56005;SDS011;41888;44.696;10.522;2022-12-29T08:54:43;94.05;;;36.10;;
56005;SDS011;41888;44.696;10.522;2022-12-29T08:57:09;100.22;;;35.35;;
56005;SDS011;41888;44.696;10.522;2022-12-29T08:59:35;99.85;;;38.80;;
56005;SDS011;41888;44.696;10.522;2022-12-29T09:02:02;99.55;;;39.45;;
56005;SDS011;41888;44.696;10.522;2022-12-29T09:04:28;88.65;;;37.95;;
56005;SDS011;41888;44.696;10.522;2022-12-29T09:06:54;97.22;;;35.60;;
56005;SDS011;41888;44.696;10.522;2022-12-29T09:09:20;96.68;;;35.85;;
56005;SDS011;41888;44.696;10.522;2022-12-29T09:11:46;87.13;;;35.45;;
56005;SDS011;41888;44.696;10.522;2022-12-29T09:14:13;94.35;;;37.67;;
56005;SDS011;41888;44.696;10.522;2022-12-29T09:16:39;94.97;;;36.03;;
56005;SDS011;41888;44.696;10.522;2022-12-29T09:19:23;96.55;;;33.60;;
56005;SDS011;41888;44.696;10.522;2022-12-29T09:21:50;91.55;;;33.88;;
56005;SDS011;41888;44.696;10.522;2022-12-29T09:24:16;94.15;;;36.90;;
56005;SDS011;41888;44.696;10.522;2022-12-29T09:26:42;97.20;;;36.88;;
56005;SDS011;41888;44.696;10.522;2022-12-29T09:29:08;93.45;;;36.03;;
56005;SDS011;41888;44.696;10.522;2022-12-29T09:31:34;94.18;;;36.58;;
56005;SDS011;41888;44.696;10.522;2022-12-29T09:34:01;100.57;;;36.72;;
56005;SDS011;41888;44.696;10.522;2022-12-29T09:36:27;94.32;;;35.00;;
56005;SDS011;41888;44.696;10.522;2022-12-29T09:38:53;97.95;;;36.50;;
56005;SDS011;41888;44.696;10.522;2022-12-29T09:41:21;83.32;;;34.65;;
56005;SDS011;41888;44.696;10.522;2022-12-29T09:46:45;97.68;;;35.85;;
56005;SDS011;41888;44.696;10.522;2022-12-29T09:49:18;100.70;;;34.65;;
56005;SDS011;41888;44.696;10.522;2022-12-29T09:51:57;93.88;;;36.78;;
56005;SDS011;41888;44.696;10.522;2022-12-29T09:54:46;100.38;;;35.60;;
56005;SDS011;41888;44.696;10.522;2022-12-29T09:57:18;91.97;;;34.40;;
56005;SDS011;41888;44.696;10.522;2022-12-29T09:59:56;100.93;;;35.38;;
56005;SDS011;41888;44.696;10.522;2022-12-29T10:02:37;104.35;;;37.72;;
56005;SDS011;41888;44.696;10.522;2022-12-29T10:05:16;112.85;;;37.42;;
56005;SDS011;41888;44.696;10.522;2022-12-29T10:10:54;96.88;;;37.17;;
56005;SDS011;41888;44.696;10.522;2022-12-29T10:13:27;104.88;;;39.22;;
56005;SDS011;41888;44.696;10.522;2022-12-29T10:16:37;104.80;;;36.45;;
56005;SDS011;41888;44.696;10.522;2022-12-29T10:24:11;109.55;;;38.60;;
56005;SDS011;41888;44.696;10.522;2022-12-29T10:26:42;109.05;;;37.92;;
56005;SDS011;41888;44.696;10.522;2022-12-29T10:29:16;112.30;;;39.65;;
56005;SDS011;41888;44.696;10.522;2022-12-29T10:31:58;108.78;;;35.75;;
56005;SDS011;41888;44.696;10.522;2022-12-29T10:34:33;103.30;;;38.38;;
56005;SDS011;41888;44.696;10.522;2022-12-29T10:39:51;92.65;;;38.00;;
56005;SDS011;41888;44.696;10.522;2022-12-29T10:44:56;96.97;;;34.05;;
56005;SDS011;41888;44.696;10.522;2022-12-29T10:47:28;90.38;;;33.70;;
56005;SDS011;41888;44.696;10.522;2022-12-29T10:49:58;90.57;;;35.25;;
56005;SDS011;41888;44.696;10.522;2022-12-29T10:52:26;92.60;;;33.42;;
56005;SDS011;41888;44.696;10.522;2022-12-29T10:55:05;88.75;;;34.88;;
56005;SDS011;41888;44.696;10.522;2022-12-29T10:57:54;94.85;;;34.60;;
56005;SDS011;41888;44.696;10.522;2022-12-29T11:00:24;94.63;;;36.50;;
56005;SDS011;41888;44.696;10.522;2022-12-29T11:09:12;102.85;;;37.17;;
56005;SDS011;41888;44.696;10.522;2022-12-29T11:11:26;96.22;;;35.58;;
56005;SDS011;41888;44.696;10.522;2022-12-29T11:13:59;96.68;;;35.00;;
56005;SDS011;41888;44.696;10.522;2022-12-29T11:16:38;99.50;;;36.17;;
56005;SDS011;41888;44.696;10.522;2022-12-29T11:19:19;97.93;;;35.92;;
56005;SDS011;41888;44.696;10.522;2022-12-29T11:21:49;91.68;;;32.95;;
56005;SDS011;41888;44.696;10.522;2022-12-29T11:26:51;85.25;;;34.55;;
56005;SDS011;41888;44.696;10.522;2022-12-29T11:29:29;89.10;;;34.08;;
56005;SDS011;41888;44.696;10.522;2022-12-29T11:32:17;85.13;;;32.15;;
56005;SDS011;41888;44.696;10.522;2022-12-29T11:34:45;101.43;;;35.55;;
56005;SDS011;41888;44.696;10.522;2022-12-29T11:37:13;99.20;;;36.75;;
56005;SDS011;41888;44.696;10.522;2022-12-29T11:39:41;105.30;;;34.17;;
56005;SDS011;41888;44.696;10.522;2022-12-29T11:42:17;89.18;;;35.30;;
56005;SDS011;41888;44.696;10.522;2022-12-29T11:44:47;84.80;;;32.45;;
56005;SDS011;41888;44.696;10.522;2022-12-29T11:47:28;86.22;;;31.70;;
56005;SDS011;41888;44.696;10.522;2022-12-29T11:50:02;87.45;;;33.38;;
56005;SDS011;41888;44.696;10.522;2022-12-29T11:52:34;89.97;;;35.33;;
56005;SDS011;41888;44.696;10.522;2022-12-29T11:55:05;89.97;;;32.42;;
56005;SDS011;41888;44.696;10.522;2022-12-29T11:57:41;95.20;;;34.13;;
56005;SDS011;41888;44.696;10.522;2022-12-29T12:00:19;90.70;;;35.13;;
56005;SDS011;41888;44.696;10.522;2022-12-29T12:03:34;89.25;;;33.53;;
56005;SDS011;41888;44.696;10.522;2022-12-29T12:06:18;83.35;;;30.30;;
56005;SDS011;41888;44.696;10.522;2022-12-29T12:08:45;83.95;;;31.50;;
56005;SDS011;41888;44.696;10.522;2022-12-29T12:11:38;94.00;;;33.33;;
56005;SDS011;41888;44.696;10.522;2022-12-29T12:16:50;77.38;;;30.30;;
56005;SDS011;41888;44.696;10.522;2022-12-29T12:22:25;85.50;;;31.52;;
56005;SDS011;41888;44.696;10.522;2022-12-29T12:27:36;84.07;;;31.92;;
56005;SDS011;41888;44.696;10.522;2022-12-29T12:30:18;88.22;;;32.85;;
56005;SDS011;41888;44.696;10.522;2022-12-29T12:35:26;87.32;;;33.03;;
56005;SDS011;41888;44.696;10.522;2022-12-29T13:03:35;84.88;;;33.03;;
56005;SDS011;41888;44.696;10.522;2022-12-29T13:09:14;88.78;;;33.88;;
56005;SDS011;41888;44.696;10.522;2022-12-29T13:17:06;83.63;;;33.22;;
56005;SDS011;41888;44.696;10.522;2022-12-29T13:20:18;76.22;;;31.83;;
56005;SDS011;41888;44.696;10.522;2022-12-29T13:22:41;67.45;;;29.25;;
56005;SDS011;41888;44.696;10.522;2022-12-29T13:27:54;69.32;;;27.92;;
56005;SDS011;41888;44.696;10.522;2022-12-29T13:30:53;75.22;;;29.73;;
56005;SDS011;41888;44.696;10.522;2022-12-29T13:33:33;64.28;;;26.05;;
56005;SDS011;41888;44.696;10.522;2022-12-29T13:36:36;75.35;;;28.73;;
56005;SDS011;41888;44.696;10.522;2022-12-29T13:39:11;77.05;;;29.55;;
56005;SDS011;41888;44.696;10.522;2022-12-29T13:41:44;82.97;;;33.13;;
56005;SDS011;41888;44.696;10.522;2022-12-29T13:44:20;74.63;;;29.23;;
56005;SDS011;41888;44.696;10.522;2022-12-29T13:46:50;83.78;;;31.77;;
56005;SDS011;41888;44.696;10.522;2022-12-29T13:49:20;87.97;;;33.08;;
56005;SDS011;41888;44.696;10.522;2022-12-29T13:51:59;85.72;;;35.53;;
56005;SDS011;41888;44.696;10.522;2022-12-29T13:58:00;69.28;;;29.13;;
56005;SDS011;41888;44.696;10.522;2022-12-29T14:00:43;73.72;;;30.02;;
56005;SDS011;41888;44.696;10.522;2022-12-29T14:06:21;70.45;;;25.75;;
56005;SDS011;41888;44.696;10.522;2022-12-29T14:08:50;67.72;;;26.38;;
56005;SDS011;41888;44.696;10.522;2022-12-29T14:11:21;66.63;;;25.98;;
56005;SDS011;41888;44.696;10.522;2022-12-29T14:13:54;70.50;;;27.25;;
56005;SDS011;41888;44.696;10.522;2022-12-29T14:16:27;72.00;;;26.75;;
56005;SDS011;41888;44.696;10.522;2022-12-29T14:18:56;68.95;;;29.15;;
56005;SDS011;41888;44.696;10.522;2022-12-29T14:21:48;76.68;;;29.55;;
56005;SDS011;41888;44.696;10.522;2022-12-29T14:26:53;78.05;;;32.08;;
56005;SDS011;41888;44.696;10.522;2022-12-29T14:31:54;72.28;;;29.85;;
56005;SDS011;41888;44.696;10.522;2022-12-29T14:36:54;73.68;;;28.45;;
56005;SDS011;41888;44.696;10.522;2022-12-29T14:52:48;69.47;;;28.77;;
56005;SDS011;41888;44.696;10.522;2022-12-29T15:00:46;79.38;;;28.77;;
56005;SDS011;41888;44.696;10.522;2022-12-29T15:06:05;68.32;;;27.27;;
56005;SDS011;41888;44.696;10.522;2022-12-29T15:08:37;64.05;;;25.70;;
56005;SDS011;41888;44.696;10.522;2022-12-29T15:14:00;73.82;;;29.10;;
56005;SDS011;41888;44.696;10.522;2022-12-29T15:18:58;68.97;;;28.48;;
56005;SDS011;41888;44.696;10.522;2022-12-29T15:21:26;78.63;;;32.20;;
56005;SDS011;41888;44.696;10.522;2022-12-29T15:23:54;79.80;;;29.13;;
56005;SDS011;41888;44.696;10.522;2022-12-29T15:26:21;69.95;;;29.67;;
56005;SDS011;41888;44.696;10.522;2022-12-29T15:28:48;75.72;;;28.20;;
56005;SDS011;41888;44.696;10.522;2022-12-29T15:31:17;62.10;;;26.27;;
56005;SDS011;41888;44.696;10.522;2022-12-29T15:33:47;66.55;;;27.38;;
56005;SDS011;41888;44.696;10.522;2022-12-29T15:36:20;74.65;;;29.15;;
56005;SDS011;41888;44.696;10.522;2022-12-29T15:38:51;73.75;;;32.55;;
56005;SDS011;41888;44.696;10.522;2022-12-29T15:41:25;70.28;;;28.10;;
56005;SDS011;41888;44.696;10.522;2022-12-29T15:44:25;70.03;;;26.95;;
56005;SDS011;41888;44.696;10.522;2022-12-29T15:47:11;63.42;;;26.98;;
56005;SDS011;41888;44.696;10.522;2022-12-29T15:49:43;68.38;;;29.27;;
56005;SDS011;41888;44.696;10.522;2022-12-29T15:52:13;74.95;;;29.17;;
56005;SDS011;41888;44.696;10.522;2022-12-29T15:54:44;86.35;;;32.85;;
56005;SDS011;41888;44.696;10.522;2022-12-29T15:57:21;98.70;;;34.97;;
56005;SDS011;41888;44.696;10.522;2022-12-29T15:59:49;96.60;;;34.33;;
56005;SDS011;41888;44.696;10.522;2022-12-29T16:02:16;98.40;;;36.85;;
56005;SDS011;41888;44.696;10.522;2022-12-29T16:04:43;106.97;;;36.08;;
56005;SDS011;41888;44.696;10.522;2022-12-29T16:07:26;111.50;;;36.95;;
56005;SDS011;41888;44.696;10.522;2022-12-29T16:09:55;99.35;;;38.88;;
56005;SDS011;41888;44.696;10.522;2022-12-29T16:12:25;113.05;;;39.60;;
56005;SDS011;41888;44.696;10.522;2022-12-29T16:14:58;116.95;;;40.72;;
56005;SDS011;41888;44.696;10.522;2022-12-29T16:17:33;110.60;;;41.88;;
56005;SDS011;41888;44.696;10.522;2022-12-29T16:20:19;113.55;;;36.15;;
56005;SDS011;41888;44.696;10.522;2022-12-29T16:22:49;119.40;;;40.38;;
56005;SDS011;41888;44.696;10.522;2022-12-29T16:25:25;112.97;;;39.35;;
56005;SDS011;41888;44.696;10.522;2022-12-29T16:27:56;111.75;;;37.80;;
56005;SDS011;41888;44.696;10.522;2022-12-29T16:30:27;117.05;;;39.70;;
56005;SDS011;41888;44.696;10.522;2022-12-29T16:32:59;110.13;;;36.75;;
56005;SDS011;41888;44.696;10.522;2022-12-29T16:35:37;99.35;;;39.25;;
56005;SDS011;41888;44.696;10.522;2022-12-29T16:38:16;115.40;;;38.13;;
56005;SDS011;41888;44.696;10.522;2022-12-29T16:40:51;110.97;;;40.20;;
56005;SDS011;41888;44.696;10.522;2022-12-29T16:43:21;111.30;;;39.55;;
56005;SDS011;41888;44.696;10.522;2022-12-29T16:46:33;111.43;;;39.75;;
56005;SDS011;41888;44.696;10.522;2022-12-29T16:48:46;102.20;;;37.30;;
56005;SDS011;41888;44.696;10.522;2022-12-29T16:51:21;99.15;;;37.38;;
56005;SDS011;41888;44.696;10.522;2022-12-29T16:53:56;100.45;;;34.83;;
56005;SDS011;41888;44.696;10.522;2022-12-29T16:56:25;100.65;;;36.63;;
56005;SDS011;41888;44.696;10.522;2022-12-29T16:59:39;105.13;;;36.17;;